9G5AR-5 messages


fromtotime message
LZ2RKG-7 9G5AR-5 06/28 11:43:50z Reply 73{0
WXBOT 9G5AR-5 05/30 22:24:45z Reply DGAA 302200Z 19008KT 9999 BKN021 27/25 Q1013 NOSIG{EW
9G5AR-5 WXBOT 05/30 22:24:38z Send another metar{06
WXBOT 9G5AR-5 05/25 11:20:11z Reply DGAA 251100Z 19007KT 150V220 9999 BKN026 30/24 Q1013 NOSIG{GC
WXBOT 9G5AR-5 05/25 11:19:04z Reply DGAA 251100Z 19007KT 150V220 9999 BKN026 30/24 Q1013 NOSIG{GB
9G5AR-5 9G5AR-5 05/25 11:18:54z Send another thanks for that{01
WXBOT 9G5AR-5 05/25 11:17:59z Reply DGAA 251100Z 19007KT 150V220 9999 BKN026 30/24 Q1013 NOSIG{GA
WXBOT 9G5AR-5 05/25 11:16:52z Reply DGAA 251100Z 19007KT 150V220 9999 BKN026 30/24 Q1013 NOSIG{FZ
WXBOT 9G5AR-5 05/24 11:12:36z Reply DGAA 241100Z 19007KT 160V240 9999 SCT032 31/24 Q1012 NOSIG{DX
9G5AR-5 WXBOT 05/24 11:12:29z Send another metar{03
WXBOT 9G5AR-5 05/24 11:10:45z Reply DGAA 241100Z 19007KT 160V240 9999 SCT032 31/24 Q1012 NOSIG{DW
9G5AR-5 WXBOT 05/24 11:10:38z Send another metar{02